sensor_id;sensor_type;location;lat;lon;timestamp;pressure;altitude;pressure_sealevel;temperature;humidity
61484;BME280;47349;55.640;37.692;2023-11-19T00:00:28;100144.34;;;-7.62;100.00
61484;BME280;47349;55.640;37.692;2023-11-19T00:02:55;100149.34;;;-7.56;100.00
61484;BME280;47349;55.640;37.692;2023-11-19T00:05:23;100139.22;;;-7.65;100.00
61484;BME280;47349;55.640;37.692;2023-11-19T00:07:50;100151.72;;;-7.48;100.00
61484;BME280;47349;55.640;37.692;2023-11-19T00:10:17;100155.16;;;-7.48;100.00
61484;BME280;47349;55.640;37.692;2023-11-19T00:12:48;100149.81;;;-7.45;100.00
61484;BME280;47349;55.640;37.692;2023-11-19T00:15:17;100143.00;;;-7.47;100.00
61484;BME280;47349;55.640;37.692;2023-11-19T00:17:47;100148.91;;;-7.42;100.00
61484;BME280;47349;55.640;37.692;2023-11-19T00:20:18;100139.56;;;-7.50;100.00
61484;BME280;47349;55.640;37.692;2023-11-19T00:22:45;100135.97;;;-7.45;100.00
61484;BME280;47349;55.640;37.692;2023-11-19T00:25:20;100136.78;;;-7.43;100.00
61484;BME280;47349;55.640;37.692;2023-11-19T00:27:50;100127.31;;;-7.46;100.00
61484;BME280;47349;55.640;37.692;2023-11-19T00:30:18;100132.97;;;-7.33;100.00
61484;BME280;47349;55.640;37.692;2023-11-19T00:32:45;100132.97;;;-7.33;100.00
61484;BME280;47349;55.640;37.692;2023-11-19T00:35:13;100112.34;;;-7.39;100.00
61484;BME280;47349;55.640;37.692;2023-11-19T00:37:42;100129.38;;;-7.31;100.00
61484;BME280;47349;55.640;37.692;2023-11-19T00:40:10;100137.56;;;-7.16;100.00
61484;BME280;47349;55.640;37.692;2023-11-19T00:42:38;100132.38;;;-7.16;100.00
61484;BME280;47349;55.640;37.692;2023-11-19T00:45:06;100126.38;;;-7.18;100.00
61484;BME280;47349;55.640;37.692;2023-11-19T00:47:38;100127.13;;;-7.15;100.00
61484;BME280;47349;55.640;37.692;2023-11-19T00:50:07;100109.75;;;-7.14;100.00
61484;BME280;47349;55.640;37.692;2023-11-19T00:52:38;100103.63;;;-7.13;100.00
61484;BME280;47349;55.640;37.692;2023-11-19T00:55:06;100110.25;;;-7.05;100.00
61484;BME280;47349;55.640;37.692;2023-11-19T00:57:36;100100.22;;;-7.15;100.00
61484;BME280;47349;55.640;37.692;2023-11-19T01:00:07;100093.63;;;-7.26;100.00
61484;BME280;47349;55.640;37.692;2023-11-19T01:02:55;100104.91;;;-7.25;100.00
61484;BME280;47349;55.640;37.692;2023-11-19T01:05:22;100104.16;;;-7.29;100.00
61484;BME280;47349;55.640;37.692;2023-11-19T01:07:50;100114.59;;;-7.29;100.00
61484;BME280;47349;55.640;37.692;2023-11-19T01:10:21;100109.59;;;-7.35;100.00
61484;BME280;47349;55.640;37.692;2023-11-19T01:12:48;100112.88;;;-7.30;100.00
61484;BME280;47349;55.640;37.692;2023-11-19T01:15:16;100115.44;;;-7.28;100.00
61484;BME280;47349;55.640;37.692;2023-11-19T01:17:46;100087.88;;;-7.35;100.00
61484;BME280;47349;55.640;37.692;2023-11-19T01:20:16;100085.25;;;-7.34;100.00
61484;BME280;47349;55.640;37.692;2023-11-19T01:22:44;100072.41;;;-7.40;100.00
61484;BME280;47349;55.640;37.692;2023-11-19T01:25:11;100083.34;;;-7.29;100.00
61484;BME280;47349;55.640;37.692;2023-11-19T01:27:41;100068.03;;;-7.38;100.00
61484;BME280;47349;55.640;37.692;2023-11-19T01:30:09;100079.22;;;-7.36;100.00
61484;BME280;47349;55.640;37.692;2023-11-19T01:32:40;100062.13;;;-7.43;100.00
61484;BME280;47349;55.640;37.692;2023-11-19T01:35:07;100076.00;;;-7.42;100.00
61484;BME280;47349;55.640;37.692;2023-11-19T01:37:35;100060.63;;;-7.50;100.00
61484;BME280;47349;55.640;37.692;2023-11-19T01:40:03;100077.06;;;-7.48;100.00
61484;BME280;47349;55.640;37.692;2023-11-19T01:42:38;100076.94;;;-7.45;100.00
61484;BME280;47349;55.640;37.692;2023-11-19T01:45:06;100068.56;;;-7.53;100.00
61484;BME280;47349;55.640;37.692;2023-11-19T01:47:35;100087.47;;;-7.48;100.00
61484;BME280;47349;55.640;37.692;2023-11-19T01:50:06;100073.78;;;-7.53;100.00
61484;BME280;47349;55.640;37.692;2023-11-19T01:52:35;100061.81;;;-7.59;100.00
61484;BME280;47349;55.640;37.692;2023-11-19T01:55:06;100074.41;;;-7.46;100.00
61484;BME280;47349;55.640;37.692;2023-11-19T01:57:35;100070.03;;;-7.46;100.00
61484;BME280;47349;55.640;37.692;2023-11-19T02:00:08;100071.16;;;-7.53;100.00
61484;BME280;47349;55.640;37.692;2023-11-19T02:02:43;100079.28;;;-7.62;100.00
61484;BME280;47349;55.640;37.692;2023-11-19T02:05:13;100064.06;;;-7.74;100.00
61484;BME280;47349;55.640;37.692;2023-11-19T02:07:40;100061.59;;;-7.78;100.00
61484;BME280;47349;55.640;37.692;2023-11-19T02:10:08;100067.59;;;-7.76;100.00
61484;BME280;47349;55.640;37.692;2023-11-19T02:12:41;100071.19;;;-7.80;100.00
61484;BME280;47349;55.640;37.692;2023-11-19T02:15:12;100050.66;;;-7.89;100.00
61484;BME280;47349;55.640;37.692;2023-11-19T02:17:39;100058.38;;;-7.86;100.00
61484;BME280;47349;55.640;37.692;2023-11-19T02:20:07;100068.69;;;-7.83;100.00
61484;BME280;47349;55.640;37.692;2023-11-19T02:22:36;100067.88;;;-7.85;100.00
61484;BME280;47349;55.640;37.692;2023-11-19T02:25:07;100072.19;;;-7.84;100.00
61484;BME280;47349;55.640;37.692;2023-11-19T02:27:58;100069.56;;;-7.84;100.00
61484;BME280;47349;55.640;37.692;2023-11-19T02:30:26;100064.59;;;-7.90;100.00
61484;BME280;47349;55.640;37.692;2023-11-19T02:32:56;100059.47;;;-7.93;100.00
61484;BME280;47349;55.640;37.692;2023-11-19T02:35:25;100047.78;;;-8.06;100.00
61484;BME280;47349;55.640;37.692;2023-11-19T02:37:56;100061.50;;;-8.01;100.00
61484;BME280;47349;55.640;37.692;2023-11-19T02:40:24;100056.59;;;-8.10;100.00
61484;BME280;47349;55.640;37.692;2023-11-19T02:42:53;100046.19;;;-8.10;100.00
61484;BME280;47349;55.640;37.692;2023-11-19T02:45:25;100046.28;;;-8.13;100.00
61484;BME280;47349;55.640;37.692;2023-11-19T02:47:53;100056.38;;;-8.04;100.00
61484;BME280;47349;55.640;37.692;2023-11-19T02:50:22;100039.31;;;-8.13;100.00
61484;BME280;47349;55.640;37.692;2023-11-19T02:52:54;100058.28;;;-8.09;100.00
61484;BME280;47349;55.640;37.692;2023-11-19T02:55:24;100060.88;;;-8.09;100.00
61484;BME280;47349;55.640;37.692;2023-11-19T02:57:52;100044.72;;;-8.19;100.00
61484;BME280;47349;55.640;37.692;2023-11-19T03:00:21;100056.78;;;-8.16;100.00
61484;BME280;47349;55.640;37.692;2023-11-19T03:02:59;100067.19;;;-8.16;100.00
61484;BME280;47349;55.640;37.692;2023-11-19T03:05:27;100065.44;;;-8.16;100.00
61484;BME280;47349;55.640;37.692;2023-11-19T03:07:57;100051.59;;;-8.16;100.00
61484;BME280;47349;55.640;37.692;2023-11-19T03:57:05;100023.06;;;-7.93;100.00
61484;BME280;47349;55.640;37.692;2023-11-19T03:59:32;100034.19;;;-7.88;100.00
61484;BME280;47349;55.640;37.692;2023-11-19T04:02:00;100028.00;;;-7.85;100.00
61484;BME280;47349;55.640;37.692;2023-11-19T04:04:28;100026.78;;;-7.75;100.00
61484;BME280;47349;55.640;37.692;2023-11-19T04:06:56;100018.97;;;-7.73;100.00
61484;BME280;47349;55.640;37.692;2023-11-19T04:09:24;100017.91;;;-7.68;100.00
61484;BME280;47349;55.640;37.692;2023-11-19T04:11:52;100015.31;;;-7.69;100.00
61484;BME280;47349;55.640;37.692;2023-11-19T04:14:19;99993.81;;;-7.74;100.00
61484;BME280;47349;55.640;37.692;2023-11-19T04:16:46;100004.50;;;-7.57;100.00
61484;BME280;47349;55.640;37.692;2023-11-19T04:19:13;99999.28;;;-7.57;100.00
61484;BME280;47349;55.640;37.692;2023-11-19T04:21:40;99989.09;;;-7.63;100.00
61484;BME280;47349;55.640;37.692;2023-11-19T04:24:09;99998.31;;;-7.55;100.00
61484;BME280;47349;55.640;37.692;2023-11-19T04:26:44;99983.69;;;-7.57;100.00
61484;BME280;47349;55.640;37.692;2023-11-19T04:29:14;99994.69;;;-7.49;100.00
61484;BME280;47349;55.640;37.692;2023-11-19T04:31:44;99996.63;;;-7.56;100.00
61484;BME280;47349;55.640;37.692;2023-11-19T04:34:12;99995.56;;;-7.50;100.00
61484;BME280;47349;55.640;37.692;2023-11-19T04:36:40;99993.00;;;-7.52;100.00
61484;BME280;47349;55.640;37.692;2023-11-19T04:39:07;100004.28;;;-7.51;100.00
61484;BME280;47349;55.640;37.692;2023-11-19T04:41:49;99983.00;;;-7.62;100.00
61484;BME280;47349;55.640;37.692;2023-11-19T04:44:16;99991.59;;;-7.60;100.00
61484;BME280;47349;55.640;37.692;2023-11-19T04:46:44;99993.34;;;-7.61;100.00
61484;BME280;47349;55.640;37.692;2023-11-19T04:49:13;100003.44;;;-7.52;100.00
61484;BME280;47349;55.640;37.692;2023-11-19T04:51:41;99994.00;;;-7.54;100.00
61484;BME280;47349;55.640;37.692;2023-11-19T04:54:10;100008.72;;;-7.55;100.00
61484;BME280;47349;55.640;37.692;2023-11-19T04:56:37;100002.91;;;-7.61;100.00
61484;BME280;47349;55.640;37.692;2023-11-19T04:59:04;100019.13;;;-7.55;100.00
61484;BME280;47349;55.640;37.692;2023-11-19T05:01:35;100003.75;;;-7.61;100.00
61484;BME280;47349;55.640;37.692;2023-11-19T05:04:03;100016.44;;;-7.52;100.00
61484;BME280;47349;55.640;37.692;2023-11-19T05:06:31;100019.78;;;-7.48;100.00
61484;BME280;47349;55.640;37.692;2023-11-19T05:08:59;100018.78;;;-7.44;100.00
61484;BME280;47349;55.640;37.692;2023-11-19T05:11:35;100021.59;;;-7.50;100.00
61484;BME280;47349;55.640;37.692;2023-11-19T05:14:03;100012.09;;;-7.51;100.00
61484;BME280;47349;55.640;37.692;2023-11-19T05:16:33;100015.59;;;-7.52;100.00
61484;BME280;47349;55.640;37.692;2023-11-19T05:19:00;100014.84;;;-7.56;100.00
61484;BME280;47349;55.640;37.692;2023-11-19T05:21:27;100011.41;;;-7.56;100.00
61484;BME280;47349;55.640;37.692;2023-11-19T05:23:54;100021.75;;;-7.55;100.00
61484;BME280;47349;55.640;37.692;2023-11-19T05:26:23;100025.94;;;-7.51;100.00
61484;BME280;47349;55.640;37.692;2023-11-19T05:28:51;100038.94;;;-7.49;100.00
61484;BME280;47349;55.640;37.692;2023-11-19T05:31:18;100019.28;;;-7.58;100.00
61484;BME280;47349;55.640;37.692;2023-11-19T05:33:45;100027.88;;;-7.56;100.00
61484;BME280;47349;55.640;37.692;2023-11-19T05:36:13;100039.81;;;-7.50;100.00
61484;BME280;47349;55.640;37.692;2023-11-19T05:38:40;100016.81;;;-7.62;100.00
61484;BME280;47349;55.640;37.692;2023-11-19T05:41:07;100015.69;;;-7.55;100.00
61484;BME280;47349;55.640;37.692;2023-11-19T05:43:35;100019.78;;;-7.48;100.00
61484;BME280;47349;55.640;37.692;2023-11-19T05:46:02;100031.56;;;-7.38;100.00
61484;BME280;47349;55.640;37.692;2023-11-19T05:48:44;100015.22;;;-7.41;100.00
61484;BME280;47349;55.640;37.692;2023-11-19T05:51:14;100029.88;;;-7.39;100.00
61484;BME280;47349;55.640;37.692;2023-11-19T05:53:44;100019.56;;;-7.42;100.00
61484;BME280;47349;55.640;37.692;2023-11-19T05:56:15;100026.38;;;-7.38;100.00
61484;BME280;47349;55.640;37.692;2023-11-19T05:58:43;100004.13;;;-7.46;100.00
61484;BME280;47349;55.640;37.692;2023-11-19T06:01:14;100019.50;;;-7.40;100.00
61484;BME280;47349;55.640;37.692;2023-11-19T06:03:42;100029.03;;;-7.39;100.00
61484;BME280;47349;55.640;37.692;2023-11-19T06:06:10;100016.97;;;-7.42;100.00
61484;BME280;47349;55.640;37.692;2023-11-19T06:08:39;100009.09;;;-7.40;100.00
61484;BME280;47349;55.640;37.692;2023-11-19T06:11:07;100006.31;;;-7.36;100.00
61484;BME280;47349;55.640;37.692;2023-11-19T06:13:34;100019.16;;;-7.30;100.00
61484;BME280;47349;55.640;37.692;2023-11-19T06:16:01;100005.44;;;-7.35;100.00
61484;BME280;47349;55.640;37.692;2023-11-19T06:18:30;100017.56;;;-7.34;100.00
61484;BME280;47349;55.640;37.692;2023-11-19T06:20:58;100001.34;;;-7.42;100.00
61484;BME280;47349;55.640;37.692;2023-11-19T06:23:25;100018.25;;;-7.30;100.00
61484;BME280;47349;55.640;37.692;2023-11-19T06:25:52;100002.25;;;-7.43;100.00
61484;BME280;47349;55.640;37.692;2023-11-19T06:28:20;100007.16;;;-7.35;100.00
61484;BME280;47349;55.640;37.692;2023-11-19T06:30:47;100005.22;;;-7.29;100.00
61484;BME280;47349;55.640;37.692;2023-11-19T06:33:15;100004.97;;;-7.22;100.00
61484;BME280;47349;55.640;37.692;2023-11-19T07:49:37;100010.38;;;-5.94;99.05
61484;BME280;47349;55.640;37.692;2023-11-19T07:52:05;100001.75;;;-5.96;100.00
61484;BME280;47349;55.640;37.692;2023-11-19T07:54:50;100007.63;;;-6.11;98.26
61484;BME280;47349;55.640;37.692;2023-11-19T07:57:17;100011.72;;;-6.06;99.36
61484;BME280;47349;55.640;37.692;2023-11-19T07:59:45;100005.44;;;-6.22;99.56
61484;BME280;47349;55.640;37.692;2023-11-19T08:02:12;100006.94;;;-6.16;98.99
61484;BME280;47349;55.640;37.692;2023-11-19T08:04:41;100003.84;;;-6.04;99.73
61484;BME280;47349;55.640;37.692;2023-11-19T08:07:15;99992.25;;;-6.19;99.76
61484;BME280;47349;55.640;37.692;2023-11-19T08:09:49;99985.53;;;-6.25;100.00
61484;BME280;47349;55.640;37.692;2023-11-19T08:12:17;99970.63;;;-6.21;100.00
61484;BME280;47349;55.640;37.692;2023-11-19T08:14:44;99988.72;;;-5.96;100.00
61484;BME280;47349;55.640;37.692;2023-11-19T08:17:11;99989.63;;;-5.97;97.70
61484;BME280;47349;55.640;37.692;2023-11-19T08:19:41;99987.53;;;-5.89;95.75
61484;BME280;47349;55.640;37.692;2023-11-19T08:22:08;99981.91;;;-5.80;95.47
61484;BME280;47349;55.640;37.692;2023-11-19T08:24:36;99979.59;;;-5.67;94.20
61484;BME280;47349;55.640;37.692;2023-11-19T08:27:04;99985.66;;;-5.66;94.17
61484;BME280;47349;55.640;37.692;2023-11-19T08:29:31;99988.16;;;-5.63;92.79
61484;BME280;47349;55.640;37.692;2023-11-19T08:32:00;99978.22;;;-5.76;90.66
61484;BME280;47349;55.640;37.692;2023-11-19T08:34:29;99978.66;;;-5.85;91.29
61484;BME280;47349;55.640;37.692;2023-11-19T08:36:56;99970.88;;;-5.86;90.95
61484;BME280;47349;55.640;37.692;2023-11-19T08:39:24;99997.69;;;-5.83;89.15
61484;BME280;47349;55.640;37.692;2023-11-19T08:41:51;99985.19;;;-5.75;89.87
61484;BME280;47349;55.640;37.692;2023-11-19T08:44:18;99965.97;;;-5.74;88.69
61484;BME280;47349;55.640;37.692;2023-11-19T08:46:48;99962.84;;;-5.82;88.29
61484;BME280;47349;55.640;37.692;2023-11-19T08:49:16;99968.25;;;-5.66;88.93
61484;BME280;47349;55.640;37.692;2023-11-19T08:51:43;99969.50;;;-5.75;86.61
61484;BME280;47349;55.640;37.692;2023-11-19T08:54:12;99957.63;;;-5.82;87.16
61484;BME280;47349;55.640;37.692;2023-11-19T08:56:42;99988.44;;;-5.70;86.26
61484;BME280;47349;55.640;37.692;2023-11-19T08:59:09;99977.78;;;-5.85;86.15
61484;BME280;47349;55.640;37.692;2023-11-19T09:01:37;99985.28;;;-5.78;87.55
61484;BME280;47349;55.640;37.692;2023-11-19T09:04:06;99971.88;;;-5.89;88.02
61484;BME280;47349;55.640;37.692;2023-11-19T09:06:35;99979.22;;;-5.78;88.05
61484;BME280;47349;55.640;37.692;2023-11-19T09:09:08;99971.47;;;-5.80;89.58
61484;BME280;47349;55.640;37.692;2023-11-19T09:11:36;99948.06;;;-6.02;89.15
61484;BME280;47349;55.640;37.692;2023-11-19T09:14:04;99955.06;;;-6.02;87.25
61484;BME280;47349;55.640;37.692;2023-11-19T09:16:32;99938.81;;;-6.09;87.83
61484;BME280;47349;55.640;37.692;2023-11-19T09:19:07;99930.81;;;-6.04;87.17
61484;BME280;47349;55.640;37.692;2023-11-19T09:21:35;99945.56;;;-5.84;86.17
61484;BME280;47349;55.640;37.692;2023-11-19T09:24:05;99948.09;;;-5.83;86.10
61484;BME280;47349;55.640;37.692;2023-11-19T09:26:39;99950.63;;;-5.81;85.10
61484;BME280;47349;55.640;37.692;2023-11-19T09:29:17;99948.63;;;-5.75;84.42
61484;BME280;47349;55.640;37.692;2023-11-19T09:31:47;99932.97;;;-5.75;83.58
61484;BME280;47349;55.640;37.692;2023-11-19T09:34:14;99945.66;;;-5.67;81.53
61484;BME280;47349;55.640;37.692;2023-11-19T09:36:41;99939.16;;;-5.77;81.36
61484;BME280;47349;55.640;37.692;2023-11-19T09:39:11;99925.53;;;-5.84;81.71
61484;BME280;47349;55.640;37.692;2023-11-19T09:41:42;99929.00;;;-5.83;81.09
61484;BME280;47349;55.640;37.692;2023-11-19T09:44:09;99922.50;;;-5.93;82.64
61484;BME280;47349;55.640;37.692;2023-11-19T09:46:41;99925.16;;;-5.95;82.28
61484;BME280;47349;55.640;37.692;2023-11-19T09:49:08;99912.00;;;-5.92;81.93
61484;BME280;47349;55.640;37.692;2023-11-19T09:51:37;99925.78;;;-5.90;82.49
61484;BME280;47349;55.640;37.692;2023-11-19T09:54:04;99921.34;;;-5.88;82.21
61484;BME280;47349;55.640;37.692;2023-11-19T09:56:35;99920.44;;;-5.87;81.21
61484;BME280;47349;55.640;37.692;2023-11-19T09:59:08;99904.91;;;-5.90;81.44
61484;BME280;47349;55.640;37.692;2023-11-19T10:01:39;99888.69;;;-5.97;80.97
61484;BME280;47349;55.640;37.692;2023-11-19T10:04:14;99887.78;;;-5.96;81.72
61484;BME280;47349;55.640;37.692;2023-11-19T10:06:44;99887.00;;;-5.98;81.05
61484;BME280;47349;55.640;37.692;2023-11-19T10:09:15;99868.31;;;-6.07;81.01
61484;BME280;47349;55.640;37.692;2023-11-19T10:11:42;99885.56;;;-6.05;82.17
61484;BME280;47349;55.640;37.692;2023-11-19T10:14:12;99863.09;;;-6.28;82.16
61484;BME280;47349;55.640;37.692;2023-11-19T10:16:41;99867.13;;;-6.21;82.93
61484;BME280;47349;55.640;37.692;2023-11-19T10:19:12;99887.50;;;-6.08;82.85
61484;BME280;47349;55.640;37.692;2023-11-19T10:21:54;99877.06;;;-6.08;81.60
61484;BME280;47349;55.640;37.692;2023-11-19T10:24:34;99873.41;;;-6.04;81.92
61484;BME280;47349;55.640;37.692;2023-11-19T10:27:09;99899.13;;;-5.97;81.43
61484;BME280;47349;55.640;37.692;2023-11-19T10:29:37;99899.06;;;-5.95;81.04
61484;BME280;47349;55.640;37.692;2023-11-19T10:32:05;99862.25;;;-6.08;81.45
61484;BME280;47349;55.640;37.692;2023-11-19T10:35:04;99877.50;;;-5.99;80.70
61484;BME280;47349;55.640;37.692;2023-11-19T10:37:32;99865.56;;;-6.04;81.29
61484;BME280;47349;55.640;37.692;2023-11-19T10:40:02;99871.28;;;-5.96;79.49
61484;BME280;47349;55.640;37.692;2023-11-19T10:42:32;99856.63;;;-5.99;78.39
61484;BME280;47349;55.640;37.692;2023-11-19T10:45:00;99871.78;;;-5.88;79.18
61484;BME280;47349;55.640;37.692;2023-11-19T10:47:32;99855.31;;;-5.90;nan
61484;BME280;47349;55.640;37.692;2023-11-19T10:50:05;99852.81;;;-5.73;79.46
61484;BME280;47349;55.640;37.692;2023-11-19T10:52:36;99865.09;;;-5.75;79.01
61484;BME280;47349;55.640;37.692;2023-11-19T10:55:05;99869.53;;;-5.77;79.49
61484;BME280;47349;55.640;37.692;2023-11-19T10:57:39;99868.75;;;-5.79;79.29
61484;BME280;47349;55.640;37.692;2023-11-19T11:00:13;99853.38;;;-5.85;80.25
61484;BME280;47349;55.640;37.692;2023-11-19T11:02:50;99851.44;;;-5.81;78.40
61484;BME280;47349;55.640;37.692;2023-11-19T11:05:22;99861.34;;;-5.69;77.81
61484;BME280;47349;55.640;37.692;2023-11-19T11:07:52;99873.00;;;-5.57;77.62
61484;BME280;47349;55.640;37.692;2023-11-19T11:10:21;99863.47;;;-5.58;77.54
61484;BME280;47349;55.640;37.692;2023-11-19T11:12:54;99876.13;;;-5.49;77.92
61484;BME280;47349;55.640;37.692;2023-11-19T11:15:27;99859.19;;;-5.59;77.89
61484;BME280;47349;55.640;37.692;2023-11-19T11:18:02;99856.50;;;-5.58;78.04
61484;BME280;47349;55.640;37.692;2023-11-19T11:20:30;99860.16;;;-5.62;76.61
61484;BME280;47349;55.640;37.692;2023-11-19T11:34:20;99855.09;;;-5.46;76.81
61484;BME280;47349;55.640;37.692;2023-11-19T11:39:34;99865.09;;;-5.37;75.59
61484;BME280;47349;55.640;37.692;2023-11-19T11:45:05;99850.34;;;-5.38;75.49
61484;BME280;47349;55.640;37.692;2023-11-19T11:50:18;99854.81;;;-5.40;75.19
61484;BME280;47349;55.640;37.692;2023-11-19T11:58:31;99851.41;;;-5.61;75.22
61484;BME280;47349;55.640;37.692;2023-11-19T12:01:01;99859.19;;;-5.59;75.83
61484;BME280;47349;55.640;37.692;2023-11-19T12:03:33;99830.25;;;-5.74;75.66
61484;BME280;47349;55.640;37.692;2023-11-19T12:06:01;99857.97;;;-5.52;76.07
61484;BME280;47349;55.640;37.692;2023-11-19T12:08:34;99843.09;;;-5.69;75.59
61484;BME280;47349;55.640;37.692;2023-11-19T12:11:19;99837.44;;;-5.60;76.43
61484;BME280;47349;55.640;37.692;2023-11-19T12:13:55;99852.81;;;-5.54;75.91
61484;BME280;47349;55.640;37.692;2023-11-19T12:16:25;99841.88;;;-5.62;76.20
61484;BME280;47349;55.640;37.692;2023-11-19T12:18:56;99837.34;;;-5.77;77.22
61484;BME280;47349;55.640;37.692;2023-11-19T12:21:30;99846.81;;;-5.75;77.13
61484;BME280;47349;55.640;37.692;2023-11-19T12:24:01;99847.50;;;-5.71;77.65
61484;BME280;47349;55.640;37.692;2023-11-19T12:26:38;99843.41;;;-5.77;77.16
61484;BME280;47349;55.640;37.692;2023-11-19T12:29:06;99820.94;;;-5.98;77.34
61484;BME280;47349;55.640;37.692;2023-11-19T12:31:36;99843.09;;;-5.69;77.96
61484;BME280;47349;55.640;37.692;2023-11-19T12:34:05;99835.03;;;-5.83;77.39
61484;BME280;47349;55.640;37.692;2023-11-19T12:36:34;99819.50;;;-5.86;77.56
61484;BME280;47349;55.640;37.692;2023-11-19T12:39:02;99831.28;;;-5.78;77.58
61484;BME280;47349;55.640;37.692;2023-11-19T12:41:31;99824.31;;;-5.77;78.35
61484;BME280;47349;55.640;37.692;2023-11-19T12:44:11;99818.13;;;-5.75;78.66
61484;BME280;47349;55.640;37.692;2023-11-19T12:46:39;99828.38;;;-5.90;78.39
61484;BME280;47349;55.640;37.692;2023-11-19T12:49:07;99810.78;;;-6.04;78.28
61484;BME280;47349;55.640;37.692;2023-11-19T12:51:41;99820.34;;;-6.05;78.99
61484;BME280;47349;55.640;37.692;2023-11-19T12:54:36;99812.06;;;-5.94;78.82
61484;BME280;47349;55.640;37.692;2023-11-19T12:57:05;99807.50;;;-5.90;79.46
61484;BME280;47349;55.640;37.692;2023-11-19T12:59:32;99805.84;;;-5.91;80.11
61484;BME280;47349;55.640;37.692;2023-11-19T13:02:00;99805.13;;;-5.95;79.90
61484;BME280;47349;55.640;37.692;2023-11-19T13:04:29;99808.44;;;-5.91;80.54
61484;BME280;47349;55.640;37.692;2023-11-19T13:07:01;99809.38;;;-5.92;80.87
61484;BME280;47349;55.640;37.692;2023-11-19T13:09:32;99799.13;;;-5.97;81.24
61484;BME280;47349;55.640;37.692;2023-11-19T13:12:12;99787.94;;;-5.99;80.62
61484;BME280;47349;55.640;37.692;2023-11-19T13:14:40;99793.78;;;-5.94;80.29
61484;BME280;47349;55.640;37.692;2023-11-19T13:17:13;99775.78;;;-6.00;80.90
61484;BME280;47349;55.640;37.692;2023-11-19T13:19:42;99786.72;;;-5.92;80.17
61484;BME280;47349;55.640;37.692;2023-11-19T13:22:10;99792.69;;;-5.90;79.23
61484;BME280;47349;55.640;37.692;2023-11-19T13:24:37;99773.97;;;-5.98;79.69
61484;BME280;47349;55.640;37.692;2023-11-19T13:27:07;99780.13;;;-5.82;79.88
61484;BME280;47349;55.640;37.692;2023-11-19T13:29:36;99780.25;;;-6.02;80.15
61484;BME280;47349;55.640;37.692;2023-11-19T13:32:03;99772.53;;;-6.05;80.34
61484;BME280;47349;55.640;37.692;2023-11-19T13:34:32;99775.22;;;-6.07;81.76
61484;BME280;47349;55.640;37.692;2023-11-19T13:37:00;99791.94;;;-5.92;81.10
61484;BME280;47349;55.640;37.692;2023-11-19T13:39:27;99799.78;;;-5.92;81.04
61484;BME280;47349;55.640;37.692;2023-11-19T13:41:55;99784.41;;;-5.98;81.68
61484;BME280;47349;55.640;37.692;2023-11-19T13:44:41;99792.72;;;-6.09;82.01
61484;BME280;47349;55.640;37.692;2023-11-19T13:47:11;99793.56;;;-6.08;82.44
61484;BME280;47349;55.640;37.692;2023-11-19T13:49:41;99806.81;;;-6.13;82.70
61484;BME280;47349;55.640;37.692;2023-11-19T13:52:08;99791.56;;;-6.22;83.34
61484;BME280;47349;55.640;37.692;2023-11-19T13:54:36;99779.16;;;-6.17;83.61
61484;BME280;47349;55.640;37.692;2023-11-19T13:57:04;99780.09;;;-6.18;83.39
61484;BME280;47349;55.640;37.692;2023-11-19T13:59:32;99793.41;;;-6.05;83.09
61484;BME280;47349;55.640;37.692;2023-11-19T14:01:59;99792.94;;;-6.13;83.14
61484;BME280;47349;55.640;37.692;2023-11-19T14:04:27;99776.25;;;-6.30;83.29
61484;BME280;47349;55.640;37.692;2023-11-19T14:06:55;99788.88;;;-6.21;83.28
61484;BME280;47349;55.640;37.692;2023-11-19T14:09:22;99779.28;;;-6.20;82.86
61484;BME280;47349;55.640;37.692;2023-11-19T14:11:50;99800.47;;;-6.07;82.28
61484;BME280;47349;55.640;37.692;2023-11-19T14:14:20;99786.88;;;-6.14;83.12
61484;BME280;47349;55.640;37.692;2023-11-19T14:16:50;99800.59;;;-6.10;82.96
61484;BME280;47349;55.640;37.692;2023-11-19T14:19:17;99795.53;;;-6.13;83.84
61484;BME280;47349;55.640;37.692;2023-11-19T14:21:45;99785.31;;;-6.18;84.13
61484;BME280;47349;55.640;37.692;2023-11-19T14:24:14;99769.41;;;-6.32;84.49
61484;BME280;47349;55.640;37.692;2023-11-19T14:26:48;99792.41;;;-6.22;85.10
61484;BME280;47349;55.640;37.692;2023-11-19T14:29:17;99780.84;;;-6.16;84.56
61484;BME280;47349;55.640;37.692;2023-11-19T14:31:45;99786.06;;;-6.16;83.88
61484;BME280;47349;55.640;37.692;2023-11-19T14:34:12;99775.50;;;-6.13;84.51
61484;BME280;47349;55.640;37.692;2023-11-19T14:36:39;99788.47;;;-6.11;84.38
61484;BME280;47349;55.640;37.692;2023-11-19T14:39:07;99778.88;;;-6.11;83.54
61484;BME280;47349;55.640;37.692;2023-11-19T14:41:34;99773.09;;;-6.17;82.99
61484;BME280;47349;55.640;37.692;2023-11-19T14:44:02;99770.41;;;-6.16;82.89
61484;BME280;47349;55.640;37.692;2023-11-19T14:46:31;99781.56;;;-6.12;83.50
61484;BME280;47349;55.640;37.692;2023-11-19T14:48:59;99780.72;;;-6.13;83.83
61484;BME280;47349;55.640;37.692;2023-11-19T14:51:26;99775.56;;;-6.14;84.03
61484;BME280;47349;55.640;37.692;2023-11-19T14:53:57;99772.38;;;-6.21;86.15
61484;BME280;47349;55.640;37.692;2023-11-19T14:56:25;99749.91;;;-6.24;86.88
61484;BME280;47349;55.640;37.692;2023-11-19T14:58:52;99761.38;;;-6.28;87.00
61484;BME280;47349;55.640;37.692;2023-11-19T15:01:20;99750.44;;;-6.36;88.77
61484;BME280;47349;55.640;37.692;2023-11-19T15:03:48;99758.25;;;-6.36;91.11
61484;BME280;47349;55.640;37.692;2023-11-19T15:06:23;99758.53;;;-6.42;93.11
61484;BME280;47349;55.640;37.692;2023-11-19T15:08:55;99769.63;;;-6.37;95.37
61484;BME280;47349;55.640;37.692;2023-11-19T15:11:25;99760.50;;;-6.47;95.64
61484;BME280;47349;55.640;37.692;2023-11-19T15:13:53;99767.34;;;-6.44;96.50
61484;BME280;47349;55.640;37.692;2023-11-19T15:16:23;99734.84;;;-6.56;96.42
61484;BME280;47349;55.640;37.692;2023-11-19T15:19:04;99724.41;;;-6.56;95.66